Time;durP1;ratioP1;P1;durP2;ratioP2;P2;SDS_P1;SDS_P2;PMS_P1;PMS_P2;Temp;Humidity;BMP_temperature;BMP_pressure;BME280_temperature;BME280_humidity;BME280_pressure;Samples;Min_cycle;Max_cycle;Signal;HPM_P1;HPM_P2
2023/02/15 00:01:18;;;;;;;68.80;54.17;;;1.70;99.90;;;;;;4972591;28;20117;-71
2023/02/15 00:03:44;;;;;;;53.05;47.45;;;1.70;99.90;;;;;;4987795;28;20103;-71
2023/02/15 00:06:10;;;;;;;52.87;47.17;;;1.70;99.90;;;;;;4960432;28;20053;-71
2023/02/15 00:08:36;;;;;;;77.72;57.47;;;1.70;99.90;;;;;;4974783;28;20497;-71
2023/02/15 00:11:05;;;;;;;51.15;45.08;;;1.70;99.90;;;;;;4987113;28;20092;-71
2023/02/15 00:13:31;;;;;;;53.25;47.42;;;1.60;99.90;;;;;;4977094;28;20058;-71
2023/02/15 00:16:08;;;;;;;51.58;46.03;;;1.60;99.90;;;;;;4974578;28;20054;-70
2023/02/15 00:18:34;;;;;;;59.80;50.05;;;1.60;99.90;;;;;;4988661;28;20048;-70
2023/02/15 00:21:08;;;;;;;55.33;49.03;;;1.60;99.90;;;;;;4977258;28;20087;-70
2023/02/15 00:23:35;;;;;;;53.83;47.83;;;1.60;99.90;;;;;;4990341;28;20062;-71
2023/02/15 00:26:11;;;;;;;53.15;47.42;;;1.60;99.90;;;;;;4975768;28;20956;-71
2023/02/15 00:28:38;;;;;;;67.43;51.15;;;1.50;99.90;;;;;;4985203;28;20088;-70
2023/02/15 00:31:11;;;;;;;52.93;47.17;;;1.50;99.90;;;;;;4992903;28;20053;-70
2023/02/15 00:33:38;;;;;;;129.20;63.42;;;1.50;99.90;;;;;;4990576;28;20618;-70
2023/02/15 00:36:06;;;;;;;55.67;46.90;;;1.40;99.90;;;;;;4976203;28;20049;-70
2023/02/15 00:38:33;;;;;;;61.10;50.13;;;1.40;99.90;;;;;;4972405;28;20718;-70
2023/02/15 00:41:00;;;;;;;57.88;50.95;;;1.40;99.90;;;;;;4976390;28;20167;-71
2023/02/15 00:43:27;;;;;;;59.30;49.23;;;1.40;99.90;;;;;;4973912;28;20147;-71
2023/02/15 00:45:53;;;;;;;62.33;54.08;;;1.30;99.90;;;;;;4990478;28;20045;-70
2023/02/15 00:48:20;;;;;;;50.15;45.00;;;1.30;99.90;;;;;;4974284;28;20759;-70
2023/02/15 00:50:48;;;;;;;51.27;45.77;;;1.30;99.90;;;;;;4989115;28;20077;-70
2023/02/15 00:53:14;;;;;;;57.72;51.58;;;1.30;99.90;;;;;;4990076;28;20408;-70
2023/02/15 00:55:40;;;;;;;57.38;51.25;;;1.20;99.90;;;;;;4973393;28;20423;-70
2023/02/15 00:58:07;;;;;;;55.65;50.03;;;1.30;99.90;;;;;;4943452;28;20049;-70
2023/02/15 01:00:33;;;;;;;59.80;53.10;;;1.30;99.90;;;;;;4957200;28;20041;-70
2023/02/15 01:02:59;;;;;;;53.85;48.30;;;1.30;99.90;;;;;;4992090;28;20056;-70
2023/02/15 01:05:25;;;;;;;55.37;49.50;;;1.20;99.90;;;;;;4977951;28;20481;-70
2023/02/15 01:07:51;;;;;;;58.73;52.63;;;1.20;99.90;;;;;;4977169;28;20128;-70
2023/02/15 01:10:17;;;;;;;59.67;53.07;;;1.20;99.90;;;;;;4993131;28;20060;-70
2023/02/15 01:12:42;;;;;;;55.20;49.43;;;1.20;99.90;;;;;;4994967;28;20049;-70
2023/02/15 01:15:09;;;;;;;58.07;51.87;;;1.20;99.90;;;;;;5004266;28;20061;-70
2023/02/15 01:17:35;;;;;;;58.07;51.40;;;1.20;99.90;;;;;;4990261;28;20189;-71
2023/02/15 01:20:01;;;;;;;57.47;51.30;;;1.10;99.90;;;;;;4982306;28;20663;-70
2023/02/15 01:22:26;;;;;;;63.00;56.03;;;1.00;99.90;;;;;;4987259;28;20102;-70
2023/02/15 01:24:52;;;;;;;56.27;50.57;;;1.00;99.90;;;;;;4988360;28;20053;-70
2023/02/15 01:27:18;;;;;;;57.63;51.50;;;1.00;99.90;;;;;;4968595;28;20051;-70
2023/02/15 01:29:44;;;;;;;63.43;56.47;;;1.00;99.90;;;;;;4989336;28;22106;-71
2023/02/15 01:32:10;;;;;;;57.47;51.47;;;1.10;99.90;;;;;;5000683;28;20037;-70
2023/02/15 01:34:36;;;;;;;55.63;49.90;;;1.00;99.90;;;;;;5004925;28;20079;-71
2023/02/15 01:37:01;;;;;;;52.20;47.07;;;1.00;99.90;;;;;;5002908;28;20140;-70
2023/02/15 01:39:27;;;;;;;54.53;49.03;;;1.00;99.90;;;;;;4988462;28;20052;-71
2023/02/15 01:41:53;;;;;;;106.00;75.87;;;1.00;99.90;;;;;;4986945;28;20056;-70
2023/02/15 01:44:51;;;;;;;136.23;86.47;;;1.00;99.90;;;;;;4984828;28;21136;-71
2023/02/15 01:47:45;;;;;;;81.83;64.27;;;1.00;99.90;;;;;;4988056;28;20097;-70
2023/02/15 01:50:20;;;;;;;102.47;70.70;;;1.00;99.90;;;;;;4996649;28;20064;-70
2023/02/15 01:53:03;;;;;;;57.93;51.83;;;1.00;99.90;;;;;;4991570;28;20059;-70
2023/02/15 01:55:38;;;;;;;53.80;48.27;;;1.00;99.90;;;;;;5007866;28;20136;-70
2023/02/15 01:58:04;;;;;;;57.43;51.53;;;0.90;99.90;;;;;;4990080;28;20053;-70
2023/02/15 02:00:30;;;;;;;54.63;49.03;;;0.90;99.90;;;;;;4990953;28;21509;-70
2023/02/15 02:02:57;;;;;;;87.43;67.70;;;0.90;99.90;;;;;;4975831;28;20407;-70
2023/02/15 02:05:23;;;;;;;59.10;53.13;;;0.90;99.90;;;;;;4991265;28;20049;-70
2023/02/15 02:07:52;;;;;;;57.53;51.53;;;0.80;99.90;;;;;;5006433;28;21565;-70
2023/02/15 02:10:22;;;;;;;66.47;56.53;;;0.80;99.90;;;;;;5003502;28;20551;-70
2023/02/15 02:12:51;;;;;;;72.03;57.30;;;0.90;99.90;;;;;;5004007;28;20076;-70
2023/02/15 02:15:17;;;;;;;65.10;56.90;;;0.80;99.90;;;;;;4986271;28;20053;-70
2023/02/15 02:18:02;;;;;;;58.63;52.53;;;0.80;99.90;;;;;;4988920;28;20041;-70
2023/02/15 02:20:57;;;;;;;57.33;51.33;;;0.80;99.90;;;;;;5002836;28;20072;-70
2023/02/15 02:23:56;;;;;;;55.67;49.70;;;0.80;99.90;;;;;;5005287;28;20113;-70
2023/02/15 02:26:59;;;;;;;52.30;47.20;;;0.70;99.90;;;;;;5004197;28;20057;-71
2023/02/15 02:29:44;;;;;;;54.70;49.00;;;0.70;99.90;;;;;;4991135;28;20586;-70
2023/02/15 02:32:52;;;;;;;62.77;54.67;;;0.70;99.90;;;;;;5005900;28;20765;-70
2023/02/15 02:35:53;;;;;;;56.53;50.43;;;0.70;99.90;;;;;;4981789;28;20049;-72
2023/02/15 02:38:28;;;;;;;58.63;52.40;;;0.80;99.90;;;;;;4965979;28;20052;-72
2023/02/15 02:41:45;;;;;;;54.97;49.30;;;0.80;99.90;;;;;;5003994;28;20041;-70
2023/02/15 02:44:26;;;;;;;72.77;58.67;;;0.80;99.90;;;;;;4901411;29;20043;-70
2023/02/15 02:47:01;;;;;;;72.33;58.83;;;0.80;99.90;;;;;;4987002;28;20052;-70
2023/02/15 02:49:33;;;;;;;54.57;49.00;;;0.70;99.90;;;;;;5004870;28;20056;-71
2023/02/15 02:52:05;;;;;;;58.87;52.40;;;0.70;99.90;;;;;;5003728;28;20041;-70
2023/02/15 02:54:34;;;;;;;57.37;51.30;;;0.70;99.90;;;;;;5004112;28;20063;-70
2023/02/15 02:57:08;;;;;;;57.73;51.83;;;0.60;99.90;;;;;;5004593;28;20044;-71
2023/02/15 02:59:40;;;;;;;58.60;52.20;;;0.70;99.90;;;;;;4979816;28;20060;-70
2023/02/15 03:02:13;;;;;;;91.57;66.43;;;0.60;99.90;;;;;;5007526;28;20443;-70
2023/02/15 03:04:42;;;;;;;59.60;53.20;;;0.60;99.90;;;;;;5001353;28;20125;-70
2023/02/15 03:07:17;;;;;;;59.33;51.88;;;0.60;99.90;;;;;;5009625;28;20403;-71
2023/02/15 03:09:47;;;;;;;64.40;57.43;;;0.60;99.90;;;;;;5008994;28;20043;-71
2023/02/15 03:12:21;;;;;;;59.60;53.20;;;0.60;99.90;;;;;;5006378;28;20103;-70
2023/02/15 03:14:51;;;;;;;55.20;49.50;;;0.50;99.90;;;;;;4962079;28;1447090;-72
2023/02/15 03:17:18;;;;;;;;;;;0.50;99.90;;;;;;4998391;28;20056;-71
2023/02/15 03:19:47;;;;;;;57.90;51.87;;;0.50;99.90;;;;;;5005394;28;19943;-70
2023/02/15 03:22:24;;;;;;;61.30;54.30;;;0.50;99.90;;;;;;5002626;28;20037;-70
2023/02/15 03:25:17;;;;;;;86.33;60.40;;;0.50;99.90;;;;;;5020326;28;20047;-70
2023/02/15 03:28:06;;;;;;;70.70;59.50;;;0.50;99.90;;;;;;5015395;28;20045;-70
2023/02/15 03:30:35;;;;;;;57.37;51.40;;;0.40;99.90;;;;;;5015704;28;20041;-71
2023/02/15 03:33:04;;;;;;;59.63;53.27;;;0.40;99.90;;;;;;5016461;28;20041;-71
2023/02/15 03:35:46;;;;;;;63.40;56.70;;;0.30;99.90;;;;;;4991376;28;20044;-71
2023/02/15 03:38:19;;;;;;;64.40;57.63;;;0.30;99.90;;;;;;4999324;28;20043;-71
2023/02/15 03:43:58;;;;;;;61.10;54.90;;;0.30;99.90;;;;;;5016527;28;20041;-72
2023/02/15 03:46:52;;;;;;;62.40;55.87;;;0.30;99.90;;;;;;5012387;28;20103;-71
2023/02/15 03:49:24;;;;;;;64.53;57.83;;;0.30;99.90;;;;;;4996817;28;20049;-71
2023/02/15 03:51:56;;;;;;;62.07;55.67;;;0.30;99.90;;;;;;4998083;28;20045;-71
2023/02/15 03:54:43;;;;;;;61.63;55.22;;;0.40;99.90;;;;;;5012400;28;20102;-71
2023/02/15 04:03:27;;;;;;;69.30;61.27;;;0.30;99.90;;;;;;5012871;28;20057;-72
2023/02/15 04:05:53;;;;;;;85.17;65.13;;;0.30;99.90;;;;;;5014173;28;20523;-71
2023/02/15 04:08:19;;;;;;;68.13;60.07;;;0.30;99.90;;;;;;4981042;28;20045;-71
2023/02/15 04:10:54;;;;;;;86.23;69.10;;;0.30;99.90;;;;;;4996003;28;20415;-71
2023/02/15 04:13:30;;;;;;;145.33;80.53;;;0.40;99.90;;;;;;4998005;28;20064;-72
2023/02/15 04:16:05;;;;;;;118.00;79.90;;;0.40;99.90;;;;;;5014267;28;20557;-72
2023/02/15 04:26:55;;;;;;;156.13;85.50;;;0.40;99.90;;;;;;5013747;28;20124;-71
2023/02/15 04:29:23;;;;;;;77.50;69.68;;;0.40;99.90;;;;;;4983968;28;20059;-71
2023/02/15 04:31:49;;;;;;;80.30;71.70;;;0.50;99.90;;;;;;5012929;28;20045;-71
2023/02/15 04:34:15;;;;;;;180.57;90.63;;;0.50;99.90;;;;;;4998695;28;20347;-71
2023/02/15 04:36:41;;;;;;;138.73;91.23;;;0.50;99.90;;;;;;4996686;28;20037;-72
2023/02/15 04:39:08;;;;;;;182.03;90.10;;;0.50;99.90;;;;;;4988385;28;20051;-71
2023/02/15 04:41:34;;;;;;;210.77;107.60;;;0.40;99.90;;;;;;4999854;28;20047;-71
2023/02/15 04:44:01;;;;;;;216.47;111.87;;;0.60;99.90;;;;;;5002194;28;20052;-71
2023/02/15 04:46:28;;;;;;;272.73;110.93;;;0.60;99.90;;;;;;5016066;28;20206;-71
2023/02/15 04:48:54;;;;;;;159.13;104.20;;;0.60;99.90;;;;;;4999403;28;20193;-71
2023/02/15 04:51:20;;;;;;;283.50;129.23;;;0.60;99.90;;;;;;5000496;28;20105;-71
2023/02/15 04:53:46;;;;;;;169.67;112.90;;;0.70;99.90;;;;;;5020037;28;20136;-71
2023/02/15 04:56:12;;;;;;;158.00;113.13;;;0.70;99.90;;;;;;4982665;28;20687;-71
2023/02/15 04:58:40;;;;;;;207.20;112.53;;;0.70;99.90;;;;;;5018948;28;20626;-71
2023/02/15 05:01:07;;;;;;;122.80;103.60;;;0.80;99.90;;;;;;5012959;28;20051;-71
2023/02/15 05:03:33;;;;;;;106.30;94.60;;;0.80;99.90;;;;;;5007730;28;20128;-71
2023/02/15 05:05:59;;;;;;;106.57;94.50;;;0.80;99.90;;;;;;5015015;28;20124;-71
2023/02/15 05:08:25;;;;;;;99.30;88.13;;;0.80;99.90;;;;;;5000810;28;20073;-71
2023/02/15 05:10:51;;;;;;;101.80;90.97;;;0.90;99.90;;;;;;4984103;28;20038;-71
2023/02/15 05:13:17;;;;;;;122.40;103.20;;;0.70;99.90;;;;;;4985352;28;20091;-71
2023/02/15 05:15:50;;;;;;;226.63;130.80;;;0.70;99.90;;;;;;4999882;28;20049;-71
2023/02/15 05:18:17;;;;;;;295.27;154.53;;;0.80;99.90;;;;;;5014474;28;20053;-71
2023/02/15 05:20:43;;;;;;;180.27;117.17;;;0.80;99.90;;;;;;5016467;28;20045;-71
2023/02/15 05:23:09;;;;;;;84.57;75.70;;;0.70;99.90;;;;;;4994923;28;21030;-71
2023/02/15 05:28:27;;;;;;;85.93;76.77;;;0.70;99.90;;;;;;4978548;28;20055;-71
2023/02/15 05:30:59;;;;;;;81.17;72.87;;;0.60;99.90;;;;;;5017269;28;20049;-71
2023/02/15 05:33:25;;;;;;;78.07;70.17;;;0.60;99.90;;;;;;5013873;28;20106;-71
2023/02/15 05:35:51;;;;;;;79.90;71.50;;;0.60;99.90;;;;;;4984923;28;20049;-71
2023/02/15 05:38:16;;;;;;;78.17;69.67;;;0.60;99.90;;;;;;4980472;28;20551;-71
2023/02/15 05:40:42;;;;;;;161.90;99.73;;;0.60;99.90;;;;;;5016496;28;20805;-72
2023/02/15 05:43:08;;;;;;;87.63;76.53;;;0.60;99.90;;;;;;5010450;28;20056;-71
2023/02/15 05:45:34;;;;;;;100.07;84.90;;;0.60;99.90;;;;;;4999394;28;20053;-71
2023/02/15 05:48:00;;;;;;;89.83;78.27;;;0.60;99.90;;;;;;4983107;28;20076;-71
2023/02/15 05:50:26;;;;;;;89.00;77.20;;;0.60;99.90;;;;;;4998940;28;20048;-71
2023/02/15 05:52:52;;;;;;;85.07;75.70;;;0.50;99.90;;;;;;5010212;28;20037;-71
2023/02/15 05:55:18;;;;;;;83.10;73.73;;;0.60;99.90;;;;;;4998111;28;20051;-71
2023/02/15 05:57:43;;;;;;;80.70;71.83;;;0.60;99.90;;;;;;4996839;28;20037;-71
2023/02/15 06:00:13;;;;;;;91.20;80.57;;;0.60;99.90;;;;;;4997816;28;20071;-73
2023/02/15 06:02:39;;;;;;;101.63;84.45;;;0.60;99.90;;;;;;5014448;28;20041;-71
2023/02/15 06:05:06;;;;;;;115.80;94.00;;;0.70;99.90;;;;;;4994416;28;20045;-71
2023/02/15 06:07:32;;;;;;;129.83;100.87;;;0.80;99.90;;;;;;5009476;28;20052;-71
2023/02/15 06:09:58;;;;;;;117.87;95.67;;;0.90;99.90;;;;;;4993843;28;20036;-71
2023/02/15 06:12:24;;;;;;;136.80;105.20;;;1.00;99.90;;;;;;4963225;28;20044;-71
2023/02/15 06:14:49;;;;;;;154.37;111.97;;;1.00;99.90;;;;;;5012800;28;20061;-71
2023/02/15 06:17:16;;;;;;;109.63;91.80;;;1.00;99.90;;;;;;4983827;28;20059;-71
2023/02/15 06:19:42;;;;;;;115.70;96.13;;;1.00;99.90;;;;;;4998571;28;20126;-71
2023/02/15 06:22:08;;;;;;;125.23;97.53;;;1.00;99.90;;;;;;4995359;28;20123;-71
2023/02/15 06:24:34;;;;;;;130.50;100.67;;;1.00;99.90;;;;;;5013866;28;20446;-71
2023/02/15 06:27:00;;;;;;;111.50;92.23;;;1.00;99.90;;;;;;4980546;28;20098;-71
2023/02/15 06:29:25;;;;;;;108.50;90.33;;;1.10;99.90;;;;;;5013107;28;20136;-71
2023/02/15 06:31:51;;;;;;;124.70;100.23;;;1.00;99.90;;;;;;4996490;28;20128;-73
2023/02/15 06:34:17;;;;;;;122.23;95.40;;;1.10;99.90;;;;;;5000305;28;20049;-72
2023/02/15 06:36:43;;;;;;;121.43;94.73;;;1.10;99.90;;;;;;4999235;28;20049;-72
2023/02/15 06:39:08;;;;;;;104.73;87.43;;;1.10;99.90;;;;;;4982254;28;20048;-72
2023/02/15 06:41:34;;;;;;;122.43;94.50;;;1.10;99.90;;;;;;5012653;28;20077;-72
2023/02/15 06:44:00;;;;;;;108.53;89.47;;;1.10;99.90;;;;;;4998550;28;20134;-72
2023/02/15 06:46:26;;;;;;;105.17;85.20;;;1.10;99.90;;;;;;4981054;28;20037;-72
2023/02/15 06:48:52;;;;;;;99.20;83.60;;;1.10;99.90;;;;;;5010380;28;20045;-72
2023/02/15 06:51:17;;;;;;;117.47;94.03;;;1.10;99.90;;;;;;4988173;28;20078;-72
2023/02/15 06:53:43;;;;;;;122.30;94.07;;;1.10;99.90;;;;;;4994025;28;20122;-71
2023/02/15 06:56:10;;;;;;;118.97;89.87;;;1.00;99.90;;;;;;5012079;28;20044;-71
2023/02/15 06:58:37;;;;;;;116.83;92.07;;;1.10;99.90;;;;;;5012618;28;20041;-70
2023/02/15 07:01:03;;;;;;;102.17;81.83;;;1.10;99.90;;;;;;4991882;28;20168;-73
2023/02/15 07:03:30;;;;;;;92.47;78.33;;;1.10;99.90;;;;;;4992017;28;20589;-70
2023/02/15 07:05:57;;;;;;;110.47;86.97;;;1.10;99.90;;;;;;4989828;28;20043;-72
2023/02/15 07:08:24;;;;;;;110.50;88.80;;;1.20;99.90;;;;;;5008140;28;20053;-72
2023/02/15 07:10:51;;;;;;;125.17;94.77;;;1.20;99.90;;;;;;5005776;28;20080;-73
2023/02/15 07:13:18;;;;;;;101.63;82.63;;;1.20;99.90;;;;;;5007192;28;20239;-72
2023/02/15 07:15:44;;;;;;;104.77;85.43;;;1.20;99.90;;;;;;4990046;28;20068;-71
2023/02/15 07:18:10;;;;;;;107.73;83.87;;;1.10;99.90;;;;;;4990602;28;20034;-72
2023/02/15 07:20:37;;;;;;;107.43;84.67;;;1.30;99.90;;;;;;5005486;28;20492;-71
2023/02/15 07:23:04;;;;;;;97.83;82.43;;;1.30;99.90;;;;;;4994911;28;20258;-72
2023/02/15 07:25:30;;;;;;;121.03;91.20;;;1.40;99.90;;;;;;4994534;28;20245;-72
2023/02/15 07:28:01;;;;;;;110.27;85.90;;;1.40;99.90;;;;;;5012800;28;20041;-72
2023/02/15 07:30:28;;;;;;;103.17;80.67;;;1.50;99.90;;;;;;5009607;28;20053;-72
2023/02/15 07:35:57;;;;;;;98.33;77.70;;;1.50;99.90;;;;;;5010127;28;20046;-72
2023/02/15 07:38:24;;;;;;;88.70;72.25;;;1.60;99.90;;;;;;4995267;28;20111;-72
2023/02/15 07:40:50;;;;;;;89.97;73.97;;;1.60;99.90;;;;;;5011253;28;20048;-72
2023/02/15 07:43:17;;;;;;;98.77;78.87;;;1.60;99.90;;;;;;4994768;28;20053;-72
2023/02/15 07:45:42;;;;;;;95.50;77.03;;;1.70;99.90;;;;;;5011451;28;20041;-72
2023/02/15 07:48:08;;;;;;;99.03;78.40;;;1.70;99.90;;;;;;5012850;28;20038;-72
2023/02/15 07:50:34;;;;;;;96.03;77.43;;;1.70;99.90;;;;;;4998646;28;20061;-72
2023/02/15 07:53:03;;;;;;;100.30;79.93;;;1.80;99.90;;;;;;5007316;28;20033;-74
2023/02/15 07:55:29;;;;;;;93.47;75.80;;;1.80;99.90;;;;;;4979155;28;20040;-72
2023/02/15 07:57:55;;;;;;;101.40;79.37;;;1.80;99.90;;;;;;5010823;28;20540;-72
2023/02/15 08:00:24;;;;;;;111.77;84.70;;;1.90;99.90;;;;;;4997221;28;20496;-73
2023/02/15 08:03:15;;;;;;;107.20;81.63;;;1.80;99.90;;;;;;5012705;28;20103;-73
2023/02/15 08:05:43;;;;;;;98.50;79.93;;;1.90;99.90;;;;;;5011118;28;20180;-72
2023/02/15 08:08:29;;;;;;;107.77;81.73;;;1.90;99.90;;;;;;5008578;28;20156;-73
2023/02/15 08:11:36;;;;;;;103.03;79.57;;;1.90;99.90;;;;;;4987404;28;20122;-73
2023/02/15 08:14:17;;;;;;;90.47;74.93;;;2.00;99.90;;;;;;4992569;28;20038;-72
2023/02/15 08:16:45;;;;;;;112.07;86.87;;;2.10;99.90;;;;;;5013509;28;20160;-73
2023/02/15 08:19:27;;;;;;;91.07;74.30;;;2.00;99.90;;;;;;5010362;28;20033;-72
2023/02/15 08:22:05;;;;;;;96.77;77.83;;;2.10;99.90;;;;;;4990264;28;20380;-72
2023/02/15 08:24:34;;;;;;;95.93;75.53;;;2.10;99.90;;;;;;5010636;28;20140;-72
2023/02/15 08:27:02;;;;;;;94.57;75.07;;;2.10;99.90;;;;;;5008375;28;20073;-72
2023/02/15 08:29:29;;;;;;;97.37;76.27;;;2.20;99.90;;;;;;4995700;28;20038;-72
2023/02/15 08:32:09;;;;;;;89.70;73.57;;;2.20;99.90;;;;;;4994516;28;20084;-72
2023/02/15 08:34:39;;;;;;;93.47;74.05;;;2.30;99.90;;;;;;4995306;28;20083;-72
2023/02/15 08:37:05;;;;;;;93.43;76.30;;;2.30;99.90;;;;;;5008485;28;20587;-73
2023/02/15 08:39:32;;;;;;;99.33;82.33;;;2.40;99.90;;;;;;4995531;28;20041;-73
2023/02/15 08:42:00;;;;;;;91.80;73.07;;;2.50;99.90;;;;;;5009142;28;20045;-73
2023/02/15 08:44:26;;;;;;;98.33;79.00;;;2.50;99.90;;;;;;4978580;28;20513;-73
2023/02/15 08:46:52;;;;;;;89.27;72.70;;;2.60;99.90;;;;;;5010149;28;20068;-73
2023/02/15 08:49:20;;;;;;;84.75;69.13;;;2.70;99.90;;;;;;4990529;28;20454;-77
2023/02/15 08:51:47;;;;;;;91.03;73.30;;;2.70;99.90;;;;;;5009858;28;20053;-77
2023/02/15 08:54:15;;;;;;;80.30;66.47;;;2.80;99.90;;;;;;5011533;28;20037;-77
2023/02/15 08:56:42;;;;;;;86.43;71.30;;;2.80;99.90;;;;;;5007475;28;20045;-77
2023/02/15 08:59:15;;;;;;;81.60;68.05;;;2.90;99.90;;;;;;5012688;28;20627;-77
2023/02/15 09:01:40;;;;;;;79.82;67.53;;;3.00;99.90;;;;;;4994956;28;20045;-78
2023/02/15 09:04:17;;;;;;;79.90;69.57;;;3.10;99.90;;;;;;5010461;28;20591;-77
2023/02/15 09:06:45;;;;;;;81.03;67.18;;;3.20;99.90;;;;;;4981705;28;20388;-78
2023/02/15 09:09:11;;;;;;;74.25;63.70;;;3.20;99.90;;;;;;5012125;28;20043;-77
2023/02/15 09:11:39;;;;;;;81.00;67.63;;;3.30;99.90;;;;;;5011288;28;20037;-77
2023/02/15 09:14:13;;;;;;;78.57;65.13;;;3.40;99.90;;;;;;5007676;28;20053;-77
2023/02/15 09:16:40;;;;;;;79.00;65.80;;;3.40;99.90;;;;;;5012973;28;20551;-77
2023/02/15 09:19:06;;;;;;;75.78;67.25;;;3.50;99.90;;;;;;5003972;28;20401;-74
2023/02/15 09:21:35;;;;;;;76.70;63.47;;;3.50;99.90;;;;;;4994831;28;20530;-77
2023/02/15 09:24:04;;;;;;;77.22;65.95;;;3.60;99.90;;;;;;4993182;28;20042;-77
2023/02/15 09:26:36;;;;;;;77.93;65.32;;;3.70;99.90;;;;;;5014087;28;20496;-77
2023/02/15 09:29:03;;;;;;;76.25;65.03;;;3.80;99.90;;;;;;5016346;28;20071;-77
2023/02/15 09:31:37;;;;;;;74.55;65.22;;;3.90;99.90;;;;;;5014013;28;20952;-76
2023/02/15 09:34:02;;;;;;;79.65;67.43;;;4.00;99.90;;;;;;5014382;28;20126;-76
2023/02/15 09:36:37;;;;;;;75.03;64.90;;;4.10;99.90;;;;;;4995043;28;20768;-76
2023/02/15 09:39:26;;;;;;;76.50;64.30;;;4.20;99.90;;;;;;4997547;28;20186;-77
2023/02/15 09:41:55;;;;;;;78.03;65.93;;;4.30;99.90;;;;;;5015270;28;20080;-76
2023/02/15 09:44:32;;;;;;;79.13;66.18;;;4.40;99.90;;;;;;5012944;28;20064;-76
2023/02/15 09:47:07;;;;;;;72.72;61.30;;;4.50;99.90;;;;;;5015696;28;20060;-76
2023/02/15 09:49:57;;;;;;;71.75;63.42;;;4.60;99.90;;;;;;4997752;28;20041;-76
2023/02/15 09:52:47;;;;;;;70.43;60.45;;;4.70;99.90;;;;;;5012914;28;20740;-77
2023/02/15 09:55:42;;;;;;;70.55;61.53;;;4.80;99.90;;;;;;4998342;28;21288;-76
2023/02/15 09:58:29;;;;;;;76.10;67.75;;;5.00;99.90;;;;;;5014765;28;20446;-76
2023/02/15 10:01:19;;;;;;;75.55;65.43;;;5.10;99.90;;;;;;4998098;28;20442;-76
2023/02/15 10:04:00;;;;;;;73.80;65.50;;;5.10;99.90;;;;;;4978617;28;20459;-76
2023/02/15 10:06:42;;;;;;;68.82;60.58;;;5.30;99.90;;;;;;5010738;28;20061;-76
2023/02/15 10:09:16;;;;;;;70.78;59.70;;;5.40;99.90;;;;;;5011881;28;20053;-76
2023/02/15 10:11:51;;;;;;;68.30;60.80;;;5.50;99.90;;;;;;5011775;28;20042;-76
2023/02/15 10:14:37;;;;;;;64.50;57.28;;;5.50;99.90;;;;;;5010315;28;20099;-77
2023/02/15 10:17:18;;;;;;;66.65;59.35;;;5.60;99.90;;;;;;4993859;28;20076;-77
2023/02/15 10:20:17;;;;;;;64.45;57.47;;;5.70;99.90;;;;;;5015912;28;20056;-77
2023/02/15 10:23:21;;;;;;;70.03;62.40;;;5.80;99.90;;;;;;5013521;28;20119;-76
2023/02/15 10:25:56;;;;;;;73.47;64.30;;;5.90;99.90;;;;;;4988403;28;20140;-76
2023/02/15 10:28:33;;;;;;;80.15;71.43;;;5.90;99.90;;;;;;5014571;28;20060;-76
2023/02/15 10:31:20;;;;;;;74.70;66.80;;;6.00;99.90;;;;;;4996572;28;20049;-76
2023/02/15 10:33:57;;;;;;;66.40;59.40;;;6.10;99.90;;;;;;4994968;28;20632;-76
2023/02/15 10:36:50;;;;;;;65.03;58.00;;;6.30;99.90;;;;;;4994323;28;20049;-76
2023/02/15 10:39:45;;;;;;;64.93;58.05;;;6.30;99.90;;;;;;4997798;28;20045;-76
2023/02/15 10:42:32;;;;;;;64.03;57.13;;;6.40;99.90;;;;;;4995657;28;20180;-76
2023/02/15 10:45:04;;;;;;;62.55;55.95;;;6.40;99.90;;;;;;4995973;28;20132;-76
2023/02/15 10:48:01;;;;;;;61.67;55.03;;;6.50;99.90;;;;;;5012782;28;20072;-76
2023/02/15 10:50:32;;;;;;;61.00;54.35;;;6.60;99.90;;;;;;5010801;28;20089;-76
2023/02/15 10:53:23;;;;;;;62.10;55.13;;;6.70;99.90;;;;;;4991672;28;20049;-76
2023/02/15 10:56:28;;;;;;;59.97;53.40;;;6.80;99.90;;;;;;5008804;28;20224;-76
2023/02/15 10:59:27;;;;;;;60.78;53.83;;;6.90;99.90;;;;;;5012730;28;20052;-76
2023/02/15 11:02:21;;;;;;;60.22;53.65;;;7.00;99.90;;;;;;4996280;28;20128;-76
2023/02/15 11:05:20;;;;;;;63.13;54.60;;;7.20;99.90;;;;;;5006875;28;20425;-76
2023/02/15 11:07:48;;;;;;;57.78;51.55;;;7.30;99.90;;;;;;4992627;28;20073;-76
2023/02/15 11:10:35;;;;;;;57.40;51.22;;;7.40;99.90;;;;;;4994306;28;20049;-76
2023/02/15 11:13:10;;;;;;;54.42;48.63;;;7.50;99.90;;;;;;5014392;28;20065;-76
2023/02/15 11:16:08;;;;;;;56.97;50.80;;;7.60;99.90;;;;;;5012963;28;20648;-76
2023/02/15 11:18:42;;;;;;;57.17;49.97;;;7.70;99.90;;;;;;4998283;28;20049;-76
2023/02/15 11:21:36;;;;;;;57.30;51.00;;;7.80;99.90;;;;;;5001641;28;20700;-77
2023/02/15 11:24:14;;;;;;;55.70;49.80;;;7.90;99.90;;;;;;4999314;28;20087;-76
2023/02/15 11:26:48;;;;;;;54.25;48.33;;;7.90;99.90;;;;;;5011957;28;20049;-76
2023/02/15 11:29:32;;;;;;;55.40;49.40;;;8.00;99.90;;;;;;5001546;28;20048;-76
2023/02/15 11:32:12;;;;;;;57.47;50.03;;;8.10;99.90;;;;;;4998144;28;20446;-76
2023/02/15 11:34:57;;;;;;;54.58;48.75;;;8.20;99.90;;;;;;5015601;28;20049;-76
2023/02/15 11:37:36;;;;;;;55.40;49.38;;;8.30;99.90;;;;;;5001082;28;20059;-78
2023/02/15 11:40:14;;;;;;;57.55;50.25;;;8.30;99.90;;;;;;5012005;28;20496;-78
2023/02/15 11:42:41;;;;;;;58.28;49.92;;;8.40;99.90;;;;;;4996968;28;20543;-78
2023/02/15 11:45:27;;;;;;;54.35;48.50;;;8.50;99.90;;;;;;4997399;28;20175;-77
2023/02/15 11:47:54;;;;;;;53.17;47.50;;;8.60;99.90;;;;;;5014680;28;20048;-78
2023/02/15 11:50:29;;;;;;;55.03;48.97;;;8.60;99.90;;;;;;5008237;28;20480;-78
2023/02/15 11:53:01;;;;;;;54.65;47.97;;;8.70;99.90;;;;;;4998141;28;20256;-78
2023/02/15 11:55:29;;;;;;;52.25;46.75;;;8.80;99.90;;;;;;4993897;28;20041;-78
2023/02/15 11:58:08;;;;;;;54.75;48.83;;;9.00;99.90;;;;;;5000581;28;20053;-77
2023/02/15 12:00:40;;;;;;;52.93;47.10;;;9.00;99.90;;;;;;5012939;28;20079;-78
2023/02/15 12:03:45;;;;;;;53.22;46.50;;;9.20;99.90;;;;;;4995822;28;20040;-78
2023/02/15 12:06:32;;;;;;;52.42;45.65;;;9.30;99.90;;;;;;4991945;28;20052;-76
2023/02/15 12:09:28;;;;;;;52.33;44.33;;;9.40;99.90;;;;;;4995040;28;20049;-76
2023/02/15 12:12:16;;;;;;;49.20;43.88;;;9.40;99.90;;;;;;5008792;28;20993;-76
2023/02/15 12:14:51;;;;;;;50.92;44.72;;;9.50;99.90;;;;;;5001265;28;20042;-76
2023/02/15 12:17:18;;;;;;;50.03;44.55;;;9.40;99.90;;;;;;4988852;28;20049;-77
2023/02/15 12:19:45;;;;;;;48.42;43.20;;;9.40;99.90;;;;;;5003115;28;20041;-77
2023/02/15 12:22:37;;;;;;;48.45;43.30;;;9.50;99.90;;;;;;5007769;28;20060;-72
2023/02/15 12:25:29;;;;;;;50.72;43.45;;;9.50;99.90;;;;;;4983999;28;20087;-73
2023/02/15 12:28:01;;;;;;;46.22;41.25;;;9.60;99.90;;;;;;5004574;28;20080;-71
2023/02/15 12:30:36;;;;;;;48.13;41.33;;;9.70;99.90;;;;;;4988169;28;20057;-72
2023/02/15 12:33:25;;;;;;;46.63;41.22;;;9.80;99.90;;;;;;5000374;28;20101;-73
2023/02/15 12:36:19;;;;;;;48.30;41.53;;;9.80;99.90;;;;;;5001768;28;20064;-73
2023/02/15 12:39:04;;;;;;;47.97;41.72;;;9.90;99.90;;;;;;4989350;28;20356;-72
2023/02/15 12:41:30;;;;;;;46.72;39.88;;;10.00;99.90;;;;;;5006021;28;20187;-73
2023/02/15 12:44:24;;;;;;;49.80;40.60;;;10.00;99.90;;;;;;4998434;28;20184;-72
2023/02/15 12:47:07;;;;;;;49.35;41.45;;;10.10;99.90;;;;;;4983570;28;20371;-73
2023/02/15 12:49:37;;;;;;;45.92;39.92;;;10.20;99.90;;;;;;5002508;28;20087;-72
2023/02/15 12:52:24;;;;;;;45.92;39.60;;;10.20;99.90;;;;;;4995045;28;20046;-72
2023/02/15 12:54:53;;;;;;;45.85;39.78;;;10.20;99.90;;;;;;4987884;28;20050;-72
2023/02/15 12:57:30;;;;;;;47.40;40.22;;;10.30;99.90;;;;;;4977031;28;20041;-71
2023/02/15 13:00:28;;;;;;;46.00;38.58;;;10.30;99.90;;;;;;4978372;28;20075;-71
2023/02/15 13:02:57;;;;;;;45.97;37.80;;;10.30;99.90;;;;;;4982933;28;20108;-72
2023/02/15 13:05:31;;;;;;;45.70;38.63;;;10.30;99.90;;;;;;5001045;28;20046;-72
2023/02/15 13:08:19;;;;;;;46.75;38.95;;;10.40;99.90;;;;;;5013174;28;20049;-72
2023/02/15 13:11:02;;;;;;;43.22;37.58;;;10.50;99.90;;;;;;5004416;28;20094;-72
2023/02/15 13:13:30;;;;;;;43.00;38.20;;;10.50;99.90;;;;;;5003988;28;20079;-73
2023/02/15 13:16:09;;;;;;;46.33;38.53;;;10.50;99.90;;;;;;5021908;28;20516;-73
2023/02/15 13:18:36;;;;;;;44.28;37.80;;;10.50;99.90;;;;;;5023688;28;20084;-71
2023/02/15 13:21:26;;;;;;;43.25;37.83;;;10.50;99.90;;;;;;5016046;28;20576;-74
2023/02/15 13:23:59;;;;;;;44.17;36.95;;;10.50;99.90;;;;;;5014887;28;20045;-73
2023/02/15 13:26:30;;;;;;;46.05;39.33;;;10.50;99.90;;;;;;5019619;28;20128;-78
2023/02/15 13:29:08;;;;;;;43.60;37.63;;;10.50;99.90;;;;;;5006281;28;20045;-78